sensor_id;sensor_type;location;lat;lon;timestamp;P1;durP1;ratioP1;P2;durP2;ratioP2
4857;SDS011;58975;51.978;8.472;2022-08-30T00:04:00;3.28;;;2.45;;
4857;SDS011;58975;51.978;8.472;2022-08-30T00:08:57;2.40;;;1.70;;
4857;SDS011;58975;51.978;8.472;2022-08-30T00:13:55;2.05;;;1.42;;
4857;SDS011;58975;51.978;8.472;2022-08-30T00:18:52;4.03;;;1.83;;
4857;SDS011;58975;51.978;8.472;2022-08-30T00:23:50;3.05;;;2.25;;
4857;SDS011;58975;51.978;8.472;2022-08-30T00:28:47;3.03;;;1.40;;
4857;SDS011;58975;51.978;8.472;2022-08-30T00:33:43;3.05;;;2.05;;
4857;SDS011;58975;51.978;8.472;2022-08-30T00:38:40;2.15;;;2.00;;
4857;SDS011;58975;51.978;8.472;2022-08-30T00:43:36;3.38;;;2.33;;
4857;SDS011;58975;51.978;8.472;2022-08-30T00:48:33;2.63;;;2.00;;
4857;SDS011;58975;51.978;8.472;2022-08-30T00:53:36;2.40;;;2.05;;
4857;SDS011;58975;51.978;8.472;2022-08-30T00:58:37;6.32;;;1.85;;
4857;SDS011;58975;51.978;8.472;2022-08-30T01:03:37;2.53;;;1.95;;
4857;SDS011;58975;51.978;8.472;2022-08-30T01:08:35;3.28;;;1.73;;
4857;SDS011;58975;51.978;8.472;2022-08-30T01:13:32;2.58;;;1.90;;
4857;SDS011;58975;51.978;8.472;2022-08-30T01:18:30;2.35;;;2.15;;
4857;SDS011;58975;51.978;8.472;2022-08-30T01:23:27;3.60;;;1.90;;
4857;SDS011;58975;51.978;8.472;2022-08-30T01:33:22;2.37;;;1.70;;
4857;SDS011;58975;51.978;8.472;2022-08-30T01:38:21;5.93;;;2.30;;
4857;SDS011;58975;51.978;8.472;2022-08-30T01:43:19;2.22;;;2.03;;
4857;SDS011;58975;51.978;8.472;2022-08-30T01:48:16;6.10;;;2.58;;
4857;SDS011;58975;51.978;8.472;2022-08-30T01:53:12;2.35;;;2.15;;
4857;SDS011;58975;51.978;8.472;2022-08-30T01:58:09;1.83;;;1.73;;
4857;SDS011;58975;51.978;8.472;2022-08-30T02:03:06;3.90;;;2.08;;
4857;SDS011;58975;51.978;8.472;2022-08-30T02:08:02;4.07;;;2.33;;
4857;SDS011;58975;51.978;8.472;2022-08-30T02:12:59;2.75;;;2.20;;
4857;SDS011;58975;51.978;8.472;2022-08-30T02:17:56;3.13;;;2.22;;
4857;SDS011;58975;51.978;8.472;2022-08-30T02:22:56;2.72;;;2.15;;
4857;SDS011;58975;51.978;8.472;2022-08-30T02:27:56;4.03;;;2.38;;
4857;SDS011;58975;51.978;8.472;2022-08-30T02:32:52;5.15;;;2.95;;
4857;SDS011;58975;51.978;8.472;2022-08-30T02:37:49;3.70;;;2.35;;
4857;SDS011;58975;51.978;8.472;2022-08-30T02:42:45;3.63;;;2.40;;
4857;SDS011;58975;51.978;8.472;2022-08-30T02:47:42;2.70;;;2.50;;
4857;SDS011;58975;51.978;8.472;2022-08-30T02:52:42;3.00;;;2.80;;
4857;SDS011;58975;51.978;8.472;2022-08-30T02:57:43;3.65;;;3.35;;
4857;SDS011;58975;51.978;8.472;2022-08-30T03:02:40;2.60;;;2.38;;
4857;SDS011;58975;51.978;8.472;2022-08-30T03:07:37;4.18;;;2.90;;
4857;SDS011;58975;51.978;8.472;2022-08-30T03:12:34;3.77;;;3.47;;
4857;SDS011;58975;51.978;8.472;2022-08-30T03:17:31;3.28;;;2.53;;
4857;SDS011;58975;51.978;8.472;2022-08-30T03:22:28;3.67;;;2.20;;
4857;SDS011;58975;51.978;8.472;2022-08-30T03:27:25;5.72;;;3.00;;
4857;SDS011;58975;51.978;8.472;2022-08-30T03:32:22;5.20;;;2.60;;
4857;SDS011;58975;51.978;8.472;2022-08-30T03:37:19;2.90;;;2.37;;
4857;SDS011;58975;51.978;8.472;2022-08-30T03:42:22;4.43;;;2.92;;
4857;SDS011;58975;51.978;8.472;2022-08-30T03:47:19;3.70;;;2.83;;
4857;SDS011;58975;51.978;8.472;2022-08-30T03:52:16;4.72;;;3.03;;
4857;SDS011;58975;51.978;8.472;2022-08-30T03:57:13;4.72;;;2.40;;
4857;SDS011;58975;51.978;8.472;2022-08-30T04:02:15;2.67;;;2.40;;
4857;SDS011;58975;51.978;8.472;2022-08-30T04:07:11;2.10;;;2.00;;
4857;SDS011;58975;51.978;8.472;2022-08-30T04:12:08;3.15;;;2.58;;
4857;SDS011;58975;51.978;8.472;2022-08-30T04:17:04;3.70;;;2.97;;
4857;SDS011;58975;51.978;8.472;2022-08-30T04:22:01;2.85;;;2.63;;
4857;SDS011;58975;51.978;8.472;2022-08-30T04:26:57;5.90;;;3.00;;
4857;SDS011;58975;51.978;8.472;2022-08-30T04:31:54;5.13;;;3.00;;
4857;SDS011;58975;51.978;8.472;2022-08-30T04:36:50;4.88;;;3.15;;
4857;SDS011;58975;51.978;8.472;2022-08-30T04:41:47;3.78;;;3.35;;
4857;SDS011;58975;51.978;8.472;2022-08-30T04:46:44;3.67;;;3.22;;
4857;SDS011;58975;51.978;8.472;2022-08-30T04:51:40;3.65;;;2.88;;
4857;SDS011;58975;51.978;8.472;2022-08-30T04:56:37;5.20;;;3.95;;
4857;SDS011;58975;51.978;8.472;2022-08-30T05:01:33;10.48;;;3.78;;
4857;SDS011;58975;51.978;8.472;2022-08-30T05:06:41;8.40;;;3.87;;
4857;SDS011;58975;51.978;8.472;2022-08-30T05:11:37;3.33;;;3.03;;
4857;SDS011;58975;51.978;8.472;2022-08-30T05:16:34;7.05;;;4.32;;
4857;SDS011;58975;51.978;8.472;2022-08-30T05:21:30;4.85;;;4.00;;
4857;SDS011;58975;51.978;8.472;2022-08-30T05:26:28;6.93;;;5.10;;
4857;SDS011;58975;51.978;8.472;2022-08-30T05:31:31;6.85;;;4.88;;
4857;SDS011;58975;51.978;8.472;2022-08-30T05:36:30;5.65;;;4.47;;
4857;SDS011;58975;51.978;8.472;2022-08-30T05:41:29;8.07;;;4.53;;
4857;SDS011;58975;51.978;8.472;2022-08-30T05:46:26;5.75;;;4.85;;
4857;SDS011;58975;51.978;8.472;2022-08-30T05:51:34;5.20;;;4.65;;
4857;SDS011;58975;51.978;8.472;2022-08-30T05:56:39;7.22;;;4.80;;
4857;SDS011;58975;51.978;8.472;2022-08-30T06:01:38;8.85;;;6.43;;
4857;SDS011;58975;51.978;8.472;2022-08-30T06:06:37;11.30;;;9.05;;
4857;SDS011;58975;51.978;8.472;2022-08-30T06:11:35;14.82;;;9.90;;
4857;SDS011;58975;51.978;8.472;2022-08-30T06:16:32;20.45;;;13.68;;
4857;SDS011;58975;51.978;8.472;2022-08-30T06:21:32;20.20;;;12.77;;
4857;SDS011;58975;51.978;8.472;2022-08-30T06:26:35;24.10;;;15.57;;
4857;SDS011;58975;51.978;8.472;2022-08-30T06:31:34;23.95;;;15.13;;
4857;SDS011;58975;51.978;8.472;2022-08-30T06:36:30;25.15;;;16.42;;
4857;SDS011;58975;51.978;8.472;2022-08-30T06:41:29;25.17;;;16.37;;
4857;SDS011;58975;51.978;8.472;2022-08-30T06:46:30;28.50;;;17.45;;
4857;SDS011;58975;51.978;8.472;2022-08-30T06:51:30;29.45;;;17.73;;
4857;SDS011;58975;51.978;8.472;2022-08-30T06:56:30;35.55;;;19.67;;
4857;SDS011;58975;51.978;8.472;2022-08-30T07:01:27;28.50;;;17.52;;
4857;SDS011;58975;51.978;8.472;2022-08-30T07:06:24;27.35;;;17.70;;
4857;SDS011;58975;51.978;8.472;2022-08-30T07:11:35;28.15;;;16.20;;
4857;SDS011;58975;51.978;8.472;2022-08-30T07:16:33;22.23;;;15.40;;
4857;SDS011;58975;51.978;8.472;2022-08-30T07:21:34;16.33;;;12.63;;
4857;SDS011;58975;51.978;8.472;2022-08-30T07:26:40;21.20;;;13.40;;
4857;SDS011;58975;51.978;8.472;2022-08-30T07:31:38;20.88;;;13.48;;
4857;SDS011;58975;51.978;8.472;2022-08-30T07:36:35;16.38;;;11.13;;
4857;SDS011;58975;51.978;8.472;2022-08-30T07:41:34;15.52;;;11.02;;
4857;SDS011;58975;51.978;8.472;2022-08-30T07:46:34;17.83;;;10.18;;
4857;SDS011;58975;51.978;8.472;2022-08-30T07:51:32;12.35;;;8.57;;
4857;SDS011;58975;51.978;8.472;2022-08-30T07:56:28;12.15;;;7.85;;
4857;SDS011;58975;51.978;8.472;2022-08-30T08:01:24;12.48;;;7.30;;
4857;SDS011;58975;51.978;8.472;2022-08-30T08:06:21;8.02;;;6.35;;
4857;SDS011;58975;51.978;8.472;2022-08-30T08:11:22;10.50;;;6.27;;
4857;SDS011;58975;51.978;8.472;2022-08-30T08:16:25;9.00;;;6.78;;
4857;SDS011;58975;51.978;8.472;2022-08-30T08:21:24;11.25;;;5.13;;
4857;SDS011;58975;51.978;8.472;2022-08-30T08:26:22;6.43;;;5.78;;
4857;SDS011;58975;51.978;8.472;2022-08-30T08:31:22;6.15;;;4.82;;
4857;SDS011;58975;51.978;8.472;2022-08-30T08:36:28;9.20;;;4.88;;
4857;SDS011;58975;51.978;8.472;2022-08-30T08:41:39;5.05;;;4.10;;
4857;SDS011;58975;51.978;8.472;2022-08-30T08:52:18;7.10;;;4.70;;
4857;SDS011;58975;51.978;8.472;2022-08-30T08:57:36;8.98;;;4.82;;
4857;SDS011;58975;51.978;8.472;2022-08-30T09:02:43;4.80;;;4.30;;
4857;SDS011;58975;51.978;8.472;2022-08-30T09:07:44;6.55;;;5.15;;
4857;SDS011;58975;51.978;8.472;2022-08-30T09:12:45;8.35;;;4.45;;
4857;SDS011;58975;51.978;8.472;2022-08-30T09:28:13;6.45;;;4.68;;
4857;SDS011;58975;51.978;8.472;2022-08-30T09:33:17;6.95;;;4.93;;
4857;SDS011;58975;51.978;8.472;2022-08-30T09:38:16;5.57;;;4.20;;
4857;SDS011;58975;51.978;8.472;2022-08-30T09:53:26;6.03;;;3.33;;
4857;SDS011;58975;51.978;8.472;2022-08-30T09:58:39;5.28;;;3.33;;
4857;SDS011;58975;51.978;8.472;2022-08-30T10:09:02;4.47;;;3.42;;
4857;SDS011;58975;51.978;8.472;2022-08-30T10:24:30;4.00;;;3.65;;
4857;SDS011;58975;51.978;8.472;2022-08-30T10:34:39;4.25;;;3.17;;
4857;SDS011;58975;51.978;8.472;2022-08-30T10:39:43;4.32;;;2.92;;
4857;SDS011;58975;51.978;8.472;2022-08-30T10:44:44;3.75;;;2.92;;
4857;SDS011;58975;51.978;8.472;2022-08-30T10:49:46;5.63;;;3.90;;
4857;SDS011;58975;51.978;8.472;2022-08-30T11:00:29;3.10;;;2.85;;
4857;SDS011;58975;51.978;8.472;2022-08-30T11:05:30;3.75;;;3.45;;
4857;SDS011;58975;51.978;8.472;2022-08-30T11:16:05;3.88;;;2.67;;
4857;SDS011;58975;51.978;8.472;2022-08-30T11:31:45;3.08;;;2.88;;
4857;SDS011;58975;51.978;8.472;2022-08-30T11:41:45;4.72;;;2.78;;
4857;SDS011;58975;51.978;8.472;2022-08-30T11:46:43;2.40;;;2.20;;
4857;SDS011;58975;51.978;8.472;2022-08-30T11:57:05;2.83;;;2.63;;
4857;SDS011;58975;51.978;8.472;2022-08-30T12:02:06;2.75;;;2.55;;
4857;SDS011;58975;51.978;8.472;2022-08-30T12:17:12;3.03;;;2.78;;
4857;SDS011;58975;51.978;8.472;2022-08-30T12:22:35;4.03;;;3.63;;
4857;SDS011;58975;51.978;8.472;2022-08-30T12:27:33;5.13;;;3.28;;
4857;SDS011;58975;51.978;8.472;2022-08-30T12:32:30;3.30;;;3.03;;
4857;SDS011;58975;51.978;8.472;2022-08-30T12:37:29;3.03;;;2.33;;
4857;SDS011;58975;51.978;8.472;2022-08-30T12:42:29;2.95;;;2.75;;
4857;SDS011;58975;51.978;8.472;2022-08-30T12:47:50;3.65;;;3.35;;
4857;SDS011;58975;51.978;8.472;2022-08-30T12:53:10;4.38;;;3.10;;
4857;SDS011;58975;51.978;8.472;2022-08-30T12:58:10;3.13;;;2.92;;
4857;SDS011;58975;51.978;8.472;2022-08-30T13:08:30;5.10;;;3.22;;
4857;SDS011;58975;51.978;8.472;2022-08-30T13:13:33;3.50;;;3.20;;
4857;SDS011;58975;51.978;8.472;2022-08-30T13:18:39;3.65;;;2.80;;
4857;SDS011;58975;51.978;8.472;2022-08-30T13:23:36;4.63;;;4.03;;
4857;SDS011;58975;51.978;8.472;2022-08-30T13:28:48;4.60;;;3.85;;
4857;SDS011;58975;51.978;8.472;2022-08-30T13:33:55;6.40;;;3.40;;
4857;SDS011;58975;51.978;8.472;2022-08-30T13:38:52;4.82;;;3.28;;
4857;SDS011;58975;51.978;8.472;2022-08-30T13:43:49;3.47;;;3.10;;
4857;SDS011;58975;51.978;8.472;2022-08-30T13:49:06;3.30;;;2.80;;
4857;SDS011;58975;51.978;8.472;2022-08-30T13:54:33;3.58;;;3.05;;
4857;SDS011;58975;51.978;8.472;2022-08-30T13:59:30;3.33;;;3.10;;
4857;SDS011;58975;51.978;8.472;2022-08-30T14:04:28;4.28;;;2.47;;
4857;SDS011;58975;51.978;8.472;2022-08-30T14:09:25;5.60;;;2.83;;
4857;SDS011;58975;51.978;8.472;2022-08-30T14:14:21;4.83;;;3.50;;
4857;SDS011;58975;51.978;8.472;2022-08-30T14:19:38;3.33;;;3.05;;
4857;SDS011;58975;51.978;8.472;2022-08-30T14:24:34;6.97;;;3.95;;
4857;SDS011;58975;51.978;8.472;2022-08-30T14:29:31;3.65;;;2.83;;
4857;SDS011;58975;51.978;8.472;2022-08-30T14:34:27;3.07;;;2.87;;
4857;SDS011;58975;51.978;8.472;2022-08-30T14:39:24;3.78;;;3.47;;
4857;SDS011;58975;51.978;8.472;2022-08-30T14:49:18;3.70;;;3.38;;
4857;SDS011;58975;51.978;8.472;2022-08-30T14:59:13;3.63;;;2.72;;
4857;SDS011;58975;51.978;8.472;2022-08-30T15:04:12;3.47;;;3.10;;
4857;SDS011;58975;51.978;8.472;2022-08-30T15:09:10;7.47;;;3.60;;
4857;SDS011;58975;51.978;8.472;2022-08-30T15:14:10;6.38;;;3.80;;
4857;SDS011;58975;51.978;8.472;2022-08-30T15:19:11;4.80;;;2.75;;
4857;SDS011;58975;51.978;8.472;2022-08-30T15:24:09;3.03;;;2.77;;
4857;SDS011;58975;51.978;8.472;2022-08-30T15:29:12;5.03;;;3.15;;
4857;SDS011;58975;51.978;8.472;2022-08-30T15:34:10;3.63;;;3.35;;
4857;SDS011;58975;51.978;8.472;2022-08-30T15:39:10;2.72;;;2.50;;
4857;SDS011;58975;51.978;8.472;2022-08-30T15:44:08;5.15;;;2.83;;
4857;SDS011;58975;51.978;8.472;2022-08-30T15:49:07;3.63;;;2.88;;
4857;SDS011;58975;51.978;8.472;2022-08-30T15:54:09;3.50;;;3.08;;
4857;SDS011;58975;51.978;8.472;2022-08-30T15:59:07;4.82;;;2.95;;
4857;SDS011;58975;51.978;8.472;2022-08-30T16:04:05;3.38;;;3.05;;
4857;SDS011;58975;51.978;8.472;2022-08-30T16:09:03;6.63;;;3.65;;
4857;SDS011;58975;51.978;8.472;2022-08-30T16:14:01;5.30;;;3.63;;
4857;SDS011;58975;51.978;8.472;2022-08-30T16:18:59;4.43;;;3.13;;
4857;SDS011;58975;51.978;8.472;2022-08-30T16:23:57;5.72;;;2.88;;
4857;SDS011;58975;51.978;8.472;2022-08-30T16:28:55;4.72;;;3.28;;
4857;SDS011;58975;51.978;8.472;2022-08-30T16:33:52;3.83;;;3.00;;
4857;SDS011;58975;51.978;8.472;2022-08-30T16:38:52;3.50;;;3.20;;
4857;SDS011;58975;51.978;8.472;2022-08-30T16:43:53;3.63;;;3.20;;
4857;SDS011;58975;51.978;8.472;2022-08-30T16:48:50;2.90;;;2.70;;
4857;SDS011;58975;51.978;8.472;2022-08-30T16:53:48;6.97;;;5.20;;
4857;SDS011;58975;51.978;8.472;2022-08-30T16:58:45;3.35;;;3.05;;
4857;SDS011;58975;51.978;8.472;2022-08-30T17:03:43;3.40;;;3.10;;
4857;SDS011;58975;51.978;8.472;2022-08-30T17:08:41;5.03;;;3.05;;
4857;SDS011;58975;51.978;8.472;2022-08-30T17:13:38;3.20;;;3.00;;
4857;SDS011;58975;51.978;8.472;2022-08-30T17:18:34;8.77;;;3.83;;
4857;SDS011;58975;51.978;8.472;2022-08-30T17:23:32;5.13;;;2.95;;
4857;SDS011;58975;51.978;8.472;2022-08-30T17:28:29;4.85;;;3.47;;
4857;SDS011;58975;51.978;8.472;2022-08-30T17:33:25;4.28;;;3.33;;
4857;SDS011;58975;51.978;8.472;2022-08-30T17:38:22;4.68;;;3.10;;
4857;SDS011;58975;51.978;8.472;2022-08-30T17:43:18;5.03;;;3.07;;
4857;SDS011;58975;51.978;8.472;2022-08-30T17:48:15;3.47;;;2.83;;
4857;SDS011;58975;51.978;8.472;2022-08-30T17:53:12;3.50;;;3.20;;
4857;SDS011;58975;51.978;8.472;2022-08-30T17:58:08;5.53;;;2.72;;
4857;SDS011;58975;51.978;8.472;2022-08-30T18:03:05;2.35;;;2.15;;
4857;SDS011;58975;51.978;8.472;2022-08-30T18:08:01;4.23;;;2.83;;
4857;SDS011;58975;51.978;8.472;2022-08-30T18:12:58;3.40;;;1.90;;
4857;SDS011;58975;51.978;8.472;2022-08-30T18:17:54;6.65;;;2.08;;
4857;SDS011;58975;51.978;8.472;2022-08-30T18:22:51;3.05;;;2.15;;
4857;SDS011;58975;51.978;8.472;2022-08-30T18:27:47;4.10;;;1.70;;
4857;SDS011;58975;51.978;8.472;2022-08-30T18:32:53;3.47;;;1.90;;
4857;SDS011;58975;51.978;8.472;2022-08-30T18:37:51;3.33;;;2.13;;
4857;SDS011;58975;51.978;8.472;2022-08-30T18:42:47;1.80;;;1.70;;
4857;SDS011;58975;51.978;8.472;2022-08-30T18:47:44;3.83;;;2.35;;
4857;SDS011;58975;51.978;8.472;2022-08-30T18:52:40;5.43;;;2.00;;
4857;SDS011;58975;51.978;8.472;2022-08-30T18:57:40;2.50;;;2.30;;
4857;SDS011;58975;51.978;8.472;2022-08-30T19:02:37;3.72;;;2.50;;
4857;SDS011;58975;51.978;8.472;2022-08-30T19:07:38;5.72;;;2.17;;
4857;SDS011;58975;51.978;8.472;2022-08-30T19:12:35;4.60;;;2.57;;
4857;SDS011;58975;51.978;8.472;2022-08-30T19:17:32;5.95;;;2.30;;
4857;SDS011;58975;51.978;8.472;2022-08-30T19:22:28;7.38;;;3.45;;
4857;SDS011;58975;51.978;8.472;2022-08-30T19:27:45;6.15;;;2.47;;
4857;SDS011;58975;51.978;8.472;2022-08-30T19:32:45;4.75;;;3.00;;
4857;SDS011;58975;51.978;8.472;2022-08-30T19:37:42;5.63;;;2.83;;
4857;SDS011;58975;51.978;8.472;2022-08-30T19:42:41;2.55;;;1.85;;
4857;SDS011;58975;51.978;8.472;2022-08-30T19:47:41;3.67;;;1.83;;
4857;SDS011;58975;51.978;8.472;2022-08-30T19:52:38;3.90;;;1.40;;
4857;SDS011;58975;51.978;8.472;2022-08-30T19:57:35;3.38;;;1.35;;
4857;SDS011;58975;51.978;8.472;2022-08-30T20:02:33;5.63;;;1.55;;
4857;SDS011;58975;51.978;8.472;2022-08-30T20:07:30;1.63;;;1.30;;
4857;SDS011;58975;51.978;8.472;2022-08-30T20:12:31;2.95;;;1.38;;
4857;SDS011;58975;51.978;8.472;2022-08-30T20:17:29;1.33;;;1.10;;
4857;SDS011;58975;51.978;8.472;2022-08-30T20:22:46;2.20;;;1.10;;
4857;SDS011;58975;51.978;8.472;2022-08-30T20:27:49;1.85;;;1.65;;
4857;SDS011;58975;51.978;8.472;2022-08-30T20:32:45;1.88;;;1.05;;
4857;SDS011;58975;51.978;8.472;2022-08-30T20:37:42;3.17;;;1.25;;
4857;SDS011;58975;51.978;8.472;2022-08-30T20:42:39;2.13;;;0.80;;
4857;SDS011;58975;51.978;8.472;2022-08-30T20:47:39;3.58;;;1.08;;
4857;SDS011;58975;51.978;8.472;2022-08-30T20:52:36;2.40;;;1.17;;
4857;SDS011;58975;51.978;8.472;2022-08-30T20:57:32;1.75;;;1.10;;
4857;SDS011;58975;51.978;8.472;2022-08-30T21:02:29;1.77;;;0.90;;
4857;SDS011;58975;51.978;8.472;2022-08-30T21:07:26;1.75;;;1.13;;
4857;SDS011;58975;51.978;8.472;2022-08-30T21:12:23;5.38;;;1.33;;
4857;SDS011;58975;51.978;8.472;2022-08-30T21:17:20;1.57;;;0.97;;
4857;SDS011;58975;51.978;8.472;2022-08-30T21:22:16;1.88;;;1.00;;
4857;SDS011;58975;51.978;8.472;2022-08-30T21:27:13;2.80;;;1.05;;
4857;SDS011;58975;51.978;8.472;2022-08-30T21:32:10;0.90;;;0.77;;
4857;SDS011;58975;51.978;8.472;2022-08-30T21:37:06;3.03;;;1.10;;
4857;SDS011;58975;51.978;8.472;2022-08-30T21:42:03;1.50;;;1.00;;
4857;SDS011;58975;51.978;8.472;2022-08-30T21:46:59;2.92;;;0.98;;
4857;SDS011;58975;51.978;8.472;2022-08-30T21:51:56;1.00;;;1.00;;
4857;SDS011;58975;51.978;8.472;2022-08-30T21:56:52;3.05;;;1.00;;
4857;SDS011;58975;51.978;8.472;2022-08-30T22:01:55;1.60;;;1.13;;
4857;SDS011;58975;51.978;8.472;2022-08-30T22:06:52;2.87;;;0.90;;
4857;SDS011;58975;51.978;8.472;2022-08-30T22:11:49;1.40;;;0.90;;
4857;SDS011;58975;51.978;8.472;2022-08-30T22:16:47;3.75;;;1.15;;
4857;SDS011;58975;51.978;8.472;2022-08-30T22:21:44;1.45;;;1.05;;
4857;SDS011;58975;51.978;8.472;2022-08-30T22:26:43;2.58;;;0.85;;
4857;SDS011;58975;51.978;8.472;2022-08-30T22:31:41;1.48;;;1.05;;
4857;SDS011;58975;51.978;8.472;2022-08-30T22:36:37;4.28;;;0.88;;
4857;SDS011;58975;51.978;8.472;2022-08-30T22:41:34;1.00;;;0.90;;
4857;SDS011;58975;51.978;8.472;2022-08-30T22:46:31;2.92;;;1.30;;
4857;SDS011;58975;51.978;8.472;2022-08-30T22:51:29;1.42;;;1.23;;
4857;SDS011;58975;51.978;8.472;2022-08-30T22:56:26;4.15;;;1.15;;
4857;SDS011;58975;51.978;8.472;2022-08-30T23:01:28;1.10;;;1.00;;
4857;SDS011;58975;51.978;8.472;2022-08-30T23:06:29;1.40;;;1.23;;
4857;SDS011;58975;51.978;8.472;2022-08-30T23:11:26;1.33;;;1.15;;
4857;SDS011;58975;51.978;8.472;2022-08-30T23:16:25;1.00;;;0.90;;
4857;SDS011;58975;51.978;8.472;2022-08-30T23:21:23;0.73;;;0.73;;
4857;SDS011;58975;51.978;8.472;2022-08-30T23:26:21;1.30;;;1.08;;
4857;SDS011;58975;51.978;8.472;2022-08-30T23:31:37;1.92;;;0.85;;
4857;SDS011;58975;51.978;8.472;2022-08-30T23:36:52;3.92;;;1.13;;
4857;SDS011;58975;51.978;8.472;2022-08-30T23:42:07;4.30;;;1.05;;
4857;SDS011;58975;51.978;8.472;2022-08-30T23:47:22;3.13;;;1.15;;
4857;SDS011;58975;51.978;8.472;2022-08-30T23:52:37;1.75;;;0.90;;
4857;SDS011;58975;51.978;8.472;2022-08-30T23:57:52;1.92;;;1.20;;
